Time;durP1;ratioP1;P1;durP2;ratioP2;P2;SDS_P1;SDS_P2;PMS_P1;PMS_P2;Temp;Humidity;BMP_temperature;BMP_pressure;BME280_temperature;BME280_humidity;BME280_pressure;Samples;Min_cycle;Max_cycle;Signal;HPM_P1;HPM_P2
2022/08/14 00:00:19;;;;;;;14.48;13.68;;;;;;;;;;5063150;28;20027;-61
2022/08/14 00:02:44;;;;;;;12.60;11.80;;;;;;;;;;5059372;28;20032;-61
2022/08/14 00:05:16;;;;;;;11.00;10.30;;;;;;;;;;5056123;28;20036;-61
2022/08/14 00:07:41;;;;;;;10.93;10.27;;;;;;;;;;5057792;28;20415;-62
2022/08/14 00:10:10;;;;;;;10.48;9.77;;;;;;;;;;5058266;28;20031;-61
2022/08/14 00:12:38;;;;;;;8.82;8.23;;;;;;;;;;5055630;28;20056;-63
2022/08/14 00:15:10;;;;;;;8.35;7.85;;;;;;;;;;5054334;28;20464;-62
2022/08/14 00:17:36;;;;;;;8.43;7.85;;;;;;;;;;5062414;28;20363;-60
2022/08/14 00:20:02;;;;;;;8.43;7.82;;;;;;;;;;5058872;28;20094;-63
2022/08/14 00:22:27;;;;;;;8.52;7.93;;;;;;;;;;5062660;28;20036;-64
2022/08/14 00:24:53;;;;;;;9.38;8.77;;;;;;;;;;5059536;28;20094;-63
2022/08/14 00:27:18;;;;;;;9.52;8.85;;;;;;;;;;5058138;28;20083;-63
2022/08/14 00:29:44;;;;;;;9.75;9.05;;;;;;;;;;5062795;28;20041;-64
2022/08/14 00:32:09;;;;;;;12.52;11.77;;;;;;;;;;5059454;28;20458;-66
2022/08/14 00:34:35;;;;;;;13.13;12.32;;;;;;;;;;5060254;28;20028;-66
2022/08/14 00:37:00;;;;;;;12.20;11.40;;;;;;;;;;5058241;28;20070;-66
2022/08/14 00:39:25;;;;;;;12.73;11.93;;;;;;;;;;5057586;28;20128;-67
2022/08/14 00:41:51;;;;;;;12.55;11.82;;;;;;;;;;5060079;28;20028;-66
2022/08/14 00:44:16;;;;;;;13.25;12.45;;;;;;;;;;5058328;28;20040;-62
2022/08/14 00:46:43;;;;;;;11.68;10.98;;;;;;;;;;5062918;28;20364;-67
2022/08/14 00:49:09;;;;;;;10.57;9.98;;;;;;;;;;5054303;28;20047;-67
2022/08/14 00:51:35;;;;;;;11.15;10.45;;;;;;;;;;5057938;28;20032;-68
2022/08/14 00:54:01;;;;;;;11.68;10.82;;;;;;;;;;5060717;28;20055;-66
2022/08/14 00:56:27;;;;;;;10.88;10.18;;;;;;;;;;5061409;28;20024;-60
2022/08/14 00:58:54;;;;;;;9.85;9.25;;;;;;;;;;5064336;28;20132;-60
2022/08/14 01:01:20;;;;;;;10.40;9.70;;;;;;;;;;5062785;28;20033;-60
2022/08/14 01:03:45;;;;;;;11.25;10.55;;;;;;;;;;5060819;28;20120;-60
2022/08/14 01:06:15;;;;;;;10.15;9.45;;;;;;;;;;5060607;28;20127;-60
2022/08/14 01:08:42;;;;;;;10.07;9.32;;;;;;;;;;5068745;28;20036;-60
2022/08/14 01:11:14;;;;;;;9.02;8.43;;;;;;;;;;5065355;28;20458;-60
2022/08/14 01:13:41;;;;;;;10.13;9.50;;;;;;;;;;5062367;28;20089;-60
2022/08/14 01:16:12;;;;;;;9.65;8.95;;;;;;;;;;5062536;28;20036;-60
2022/08/14 01:21:30;;;;;;;8.85;8.25;;;;;;;;;;5066013;28;20524;-64
2022/08/14 01:23:55;;;;;;;8.82;8.23;;;;;;;;;;5064721;28;20036;-65
2022/08/14 01:26:22;;;;;;;9.30;8.70;;;;;;;;;;5064787;28;20023;-66
2022/08/14 01:28:56;;;;;;;9.93;9.23;;;;;;;;;;5067983;28;20042;-65
2022/08/14 01:31:26;;;;;;;10.70;9.93;;;;;;;;;;5063197;28;20028;-62
2022/08/14 01:33:54;;;;;;;9.15;8.55;;;;;;;;;;5063500;28;20036;-61
2022/08/14 01:36:19;;;;;;;11.93;11.20;;;;;;;;;;5064480;28;20029;-62
2022/08/14 01:38:47;;;;;;;11.82;11.13;;;;;;;;;;5064422;28;20071;-66
2022/08/14 01:41:23;;;;;;;11.65;10.95;;;;;;;;;;5065848;28;20032;-62
2022/08/14 01:43:53;;;;;;;12.02;11.30;;;;;;;;;;5065107;28;20374;-66
2022/08/14 01:46:23;;;;;;;11.07;10.35;;;;;;;;;;5061852;28;20037;-66
2022/08/14 01:48:51;;;;;;;11.40;10.70;;;;;;;;;;5064093;28;20558;-67
2022/08/14 01:51:21;;;;;;;13.10;12.30;;;;;;;;;;5057289;28;20398;-66
2022/08/14 01:53:56;;;;;;;14.30;13.50;;;;;;;;;;5066547;28;20042;-67
2022/08/14 01:56:38;;;;;;;18.48;17.40;;;;;;;;;;5067301;28;20449;-67
2022/08/14 01:59:30;;;;;;;17.00;16.02;;;;;;;;;;5059871;28;20098;-68
2022/08/14 02:01:57;;;;;;;13.35;12.55;;;;;;;;;;5061546;28;20032;-67
2022/08/14 02:04:26;;;;;;;13.02;12.23;;;;;;;;;;5052246;28;20042;-67
2022/08/14 02:06:52;;;;;;;16.10;15.10;;;;;;;;;;5059499;28;20040;-67
2022/08/14 02:09:20;;;;;;;11.50;10.80;;;;;;;;;;5061206;28;20112;-67
2022/08/14 02:11:45;;;;;;;12.23;11.50;;;;;;;;;;5057014;28;20426;-67
2022/08/14 02:14:12;;;;;;;15.02;14.13;;;;;;;;;;5070962;28;20048;-66
2022/08/14 02:16:45;;;;;;;13.18;12.38;;;;;;;;;;5067010;28;20094;-66
2022/08/14 02:19:13;;;;;;;16.00;14.90;;;;;;;;;;5064309;28;20028;-62
2022/08/14 02:21:41;;;;;;;13.52;12.73;;;;;;;;;;5060427;28;20021;-61
2022/08/14 02:24:07;;;;;;;12.82;12.05;;;;;;;;;;5059785;28;20029;-62
2022/08/14 02:26:36;;;;;;;16.88;15.95;;;;;;;;;;5065728;28;20032;-61
2022/08/14 02:29:06;;;;;;;13.77;12.95;;;;;;;;;;5064754;28;20134;-61
2022/08/14 02:31:33;;;;;;;13.13;12.37;;;;;;;;;;5063854;28;20041;-66
2022/08/14 02:34:03;;;;;;;15.40;14.45;;;;;;;;;;5065164;28;20373;-67
2022/08/14 02:36:29;;;;;;;13.32;12.52;;;;;;;;;;5062313;28;20100;-65
2022/08/14 02:38:54;;;;;;;15.13;14.20;;;;;;;;;;5062564;28;20323;-66
2022/08/14 02:41:20;;;;;;;13.05;12.25;;;;;;;;;;5063303;28;20284;-66
2022/08/14 02:43:46;;;;;;;18.67;17.58;;;;;;;;;;5060612;28;20067;-67
2022/08/14 02:46:12;;;;;;;19.08;17.98;;;;;;;;;;5061160;28;20152;-62
2022/08/14 02:48:40;;;;;;;13.32;12.52;;;;;;;;;;5064989;28;20077;-66
2022/08/14 02:51:09;;;;;;;16.00;15.10;;;;;;;;;;5055939;28;20353;-62
2022/08/14 02:53:38;;;;;;;15.60;14.70;;;;;;;;;;5056571;28;20044;-66
2022/08/14 02:56:04;;;;;;;16.42;15.52;;;;;;;;;;5064290;28;20339;-62
2022/08/14 02:58:36;;;;;;;17.67;16.67;;;;;;;;;;5066095;28;20061;-67
2022/08/14 03:01:01;;;;;;;18.83;17.73;;;;;;;;;;5056863;28;20546;-61
2022/08/14 03:03:27;;;;;;;18.67;17.60;;;;;;;;;;5059019;28;20037;-62
2022/08/14 03:05:53;;;;;;;19.05;17.85;;;;;;;;;;5064273;28;20028;-67
2022/08/14 03:08:19;;;;;;;20.67;19.52;;;;;;;;;;5062142;28;20033;-62
2022/08/14 03:10:45;;;;;;;21.30;20.10;;;;;;;;;;5062044;28;20406;-62
2022/08/14 03:13:10;;;;;;;21.77;20.58;;;;;;;;;;5056640;28;20346;-62
2022/08/14 03:15:51;;;;;;;22.02;20.83;;;;;;;;;;5060680;28;20531;-62
2022/08/14 03:18:16;;;;;;;21.23;20.02;;;;;;;;;;5061082;28;20112;-62
2022/08/14 03:20:41;;;;;;;18.10;17.10;;;;;;;;;;5060647;28;20120;-62
2022/08/14 03:23:07;;;;;;;22.67;21.33;;;;;;;;;;5057991;28;20413;-62
2022/08/14 03:25:32;;;;;;;24.65;23.25;;;;;;;;;;5057793;28;20052;-62
2022/08/14 03:28:02;;;;;;;25.10;23.70;;;;;;;;;;5058928;28;20032;-62
2022/08/14 03:30:30;;;;;;;25.70;24.30;;;;;;;;;;5062019;28;20040;-62
2022/08/14 03:32:56;;;;;;;29.60;28.00;;;;;;;;;;5061489;28;20119;-66
2022/08/14 03:35:22;;;;;;;26.25;24.77;;;;;;;;;;5062133;28;20044;-66
2022/08/14 03:37:49;;;;;;;29.45;27.80;;;;;;;;;;5059190;28;20025;-66
2022/08/14 03:40:15;;;;;;;33.00;31.08;;;;;;;;;;5060290;28;20505;-66
2022/08/14 03:42:41;;;;;;;33.10;31.35;;;;;;;;;;5062455;28;20040;-66
2022/08/14 03:45:06;;;;;;;28.90;27.30;;;;;;;;;;5063728;28;20577;-66
2022/08/14 03:47:39;;;;;;;29.38;27.77;;;;;;;;;;5074765;28;20095;-66
2022/08/14 03:50:08;;;;;;;32.58;30.88;;;;;;;;;;5057981;28;20039;-64
2022/08/14 03:52:34;;;;;;;31.85;30.15;;;;;;;;;;5056640;28;20047;-64
2022/08/14 03:55:00;;;;;;;29.52;27.98;;;;;;;;;;5052378;28;20116;-64
2022/08/14 03:57:31;;;;;;;26.08;24.67;;;;;;;;;;5052576;28;20107;-64
2022/08/14 03:59:56;;;;;;;33.50;31.70;;;;;;;;;;5054141;28;20604;-63
2022/08/14 04:02:23;;;;;;;22.10;20.90;;;;;;;;;;5059541;28;20013;-63
2022/08/14 04:04:48;;;;;;;21.55;20.35;;;;;;;;;;5064028;28;20318;-63
2022/08/14 04:07:16;;;;;;;19.55;18.27;;;;;;;;;;5060214;28;20032;-64
2022/08/14 04:09:41;;;;;;;13.00;12.20;;;;;;;;;;5060177;28;20037;-65
2022/08/14 04:12:07;;;;;;;13.40;12.52;;;;;;;;;;5055991;28;20140;-64
2022/08/14 04:14:32;;;;;;;12.52;11.73;;;;;;;;;;5059391;28;20048;-64
2022/08/14 04:16:58;;;;;;;13.55;12.75;;;;;;;;;;5055832;28;20047;-64
2022/08/14 04:19:23;;;;;;;14.57;13.57;;;;;;;;;;5061532;28;20107;-64
2022/08/14 04:21:49;;;;;;;13.60;12.80;;;;;;;;;;5061279;28;20085;-63
2022/08/14 04:24:15;;;;;;;15.18;14.27;;;;;;;;;;5059681;28;20410;-64
2022/08/14 04:26:43;;;;;;;15.05;14.15;;;;;;;;;;5056507;28;20124;-64
2022/08/14 04:29:09;;;;;;;13.63;12.82;;;;;;;;;;5062346;28;20029;-64
2022/08/14 04:31:34;;;;;;;17.83;16.80;;;;;;;;;;5061116;28;20372;-65
2022/08/14 04:34:00;;;;;;;16.08;15.18;;;;;;;;;;5060013;28;20162;-65
2022/08/14 04:36:25;;;;;;;23.50;22.10;;;;;;;;;;5065304;28;20028;-64
2022/08/14 04:44:19;;;;;;;12.63;11.82;;;;;;;;;;5065205;28;20510;-64
2022/08/14 04:49:29;;;;;;;11.68;10.98;;;;;;;;;;5060592;28;20450;-64
2022/08/14 04:51:54;;;;;;;12.65;11.85;;;;;;;;;;5060886;28;20097;-65
2022/08/14 04:54:20;;;;;;;14.32;13.20;;;;;;;;;;5064173;28;20072;-65
2022/08/14 04:56:46;;;;;;;10.63;9.93;;;;;;;;;;5062133;28;20029;-64
2022/08/14 04:59:11;;;;;;;12.50;11.73;;;;;;;;;;5057646;28;20068;-64
2022/08/14 05:01:43;;;;;;;13.18;12.30;;;;;;;;;;5061386;28;20527;-64
2022/08/14 05:04:11;;;;;;;13.23;12.43;;;;;;;;;;5058273;28;20209;-64
2022/08/14 05:06:37;;;;;;;15.93;15.02;;;;;;;;;;5060446;28;20099;-64
2022/08/14 05:09:03;;;;;;;16.75;15.68;;;;;;;;;;5061511;28;20039;-64
2022/08/14 05:11:32;;;;;;;17.48;16.48;;;;;;;;;;5061943;28;20056;-63
2022/08/14 05:13:58;;;;;;;18.42;17.33;;;;;;;;;;5066236;28;20028;-63
2022/08/14 05:16:28;;;;;;;20.63;19.40;;;;;;;;;;5060344;28;20036;-64
2022/08/14 05:18:54;;;;;;;21.05;19.85;;;;;;;;;;5062755;28;20511;-63
2022/08/14 05:21:20;;;;;;;22.00;20.80;;;;;;;;;;5064498;28;20024;-63
2022/08/14 05:23:46;;;;;;;21.63;20.23;;;;;;;;;;5059456;28;20399;-64
2022/08/14 05:26:16;;;;;;;34.08;32.17;;;;;;;;;;5057912;28;20108;-63
2022/08/14 05:28:44;;;;;;;35.78;33.88;;;;;;;;;;5061413;28;20052;-63
2022/08/14 05:31:11;;;;;;;33.72;31.92;;;;;;;;;;5061854;28;20029;-62
2022/08/14 05:33:37;;;;;;;35.63;33.70;;;;;;;;;;5058545;28;20037;-63
2022/08/14 05:36:05;;;;;;;40.90;38.80;;;;;;;;;;5061770;28;20533;-63
2022/08/14 05:38:34;;;;;;;36.67;34.72;;;;;;;;;;5061312;28;20052;-63
2022/08/14 05:41:04;;;;;;;42.30;40.05;;;;;;;;;;5059648;28;20043;-63
2022/08/14 05:43:30;;;;;;;42.60;40.40;;;;;;;;;;5060449;28;20103;-62
2022/08/14 05:45:57;;;;;;;47.67;45.25;;;;;;;;;;5059139;28;20089;-64
2022/08/14 05:48:23;;;;;;;51.88;49.25;;;;;;;;;;5063955;28;20028;-63
2022/08/14 05:50:48;;;;;;;46.10;43.65;;;;;;;;;;5060505;28;20036;-65
2022/08/14 05:53:14;;;;;;;42.85;40.60;;;;;;;;;;5061234;28;20028;-63
2022/08/14 05:55:39;;;;;;;46.33;43.92;;;;;;;;;;5062731;28;20032;-63
2022/08/14 05:58:06;;;;;;;48.00;45.55;;;;;;;;;;5062524;28;20035;-62
2022/08/14 06:00:40;;;;;;;52.28;49.53;;;;;;;;;;5062089;28;20123;-63
2022/08/14 06:03:21;;;;;;;54.00;51.20;;;;;;;;;;5060389;28;20029;-65
2022/08/14 06:05:48;;;;;;;51.65;49.00;;;;;;;;;;5060142;28;20048;-64
2022/08/14 06:08:16;;;;;;;53.13;50.28;;;;;;;;;;5060603;28;20037;-62
2022/08/14 06:10:41;;;;;;;71.80;68.13;;;;;;;;;;5063644;28;20052;-62
2022/08/14 06:13:06;;;;;;;75.70;71.88;;;;;;;;;;5063150;28;20051;-63
2022/08/14 06:15:32;;;;;;;73.03;69.38;;;;;;;;;;5063944;28;20067;-63
2022/08/14 06:17:58;;;;;;;76.60;72.80;;;;;;;;;;5063164;28;20040;-63
2022/08/14 06:20:23;;;;;;;92.80;88.10;;;;;;;;;;5059708;28;20111;-64
2022/08/14 06:22:49;;;;;;;95.88;91.10;;;;;;;;;;5058585;28;20550;-63
2022/08/14 06:25:15;;;;;;;99.72;94.78;;;;;;;;;;5061440;28;20102;-63
2022/08/14 06:27:44;;;;;;;111.30;105.78;;;;;;;;;;5061571;28;20348;-61
2022/08/14 06:30:16;;;;;;;108.60;103.22;;;;;;;;;;5066179;28;20462;-62
2022/08/14 06:32:42;;;;;;;98.43;93.43;;;;;;;;;;5062155;28;20147;-61
2022/08/14 06:35:09;;;;;;;108.13;102.70;;;;;;;;;;5058634;28;20031;-62
2022/08/14 06:37:42;;;;;;;100.07;95.00;;;;;;;;;;5059641;28;20044;-62
2022/08/14 06:40:11;;;;;;;99.50;94.60;;;;;;;;;;5059478;28;20120;-62
2022/08/14 06:42:36;;;;;;;110.20;104.78;;;;;;;;;;5064335;28;20129;-63
2022/08/14 06:45:02;;;;;;;87.95;83.60;;;;;;;;;;5060313;28;20127;-62
2022/08/14 06:47:27;;;;;;;73.95;70.30;;;;;;;;;;5063741;28;20385;-63
2022/08/14 06:49:52;;;;;;;56.80;53.90;;;;;;;;;;5061425;28;20032;-61
2022/08/14 06:52:18;;;;;;;49.08;46.55;;;;;;;;;;5061232;28;20031;-63
2022/08/14 06:54:44;;;;;;;43.03;40.72;;;;;;;;;;5059613;28;20032;-63
2022/08/14 06:57:09;;;;;;;50.03;47.53;;;;;;;;;;5060689;28;20039;-63
2022/08/14 06:59:35;;;;;;;48.53;46.05;;;;;;;;;;5062958;28;20041;-63
2022/08/14 07:07:38;;;;;;;41.65;39.53;;;;;;;;;;5063761;28;20035;-63
2022/08/14 07:10:04;;;;;;;46.17;43.63;;;;;;;;;;5062782;28;20496;-63
2022/08/14 07:12:30;;;;;;;36.60;34.72;;;;;;;;;;5060414;28;20036;-64
2022/08/14 07:14:56;;;;;;;20.08;18.77;;;;;;;;;;5062814;28;20036;-62
2022/08/14 07:17:21;;;;;;;21.63;20.23;;;;;;;;;;5062049;28;20051;-63
2022/08/14 07:19:46;;;;;;;16.85;15.88;;;;;;;;;;5060555;28;20090;-61
2022/08/14 07:22:12;;;;;;;15.32;14.43;;;;;;;;;;5064311;28;20031;-63
2022/08/14 07:24:37;;;;;;;13.27;12.48;;;;;;;;;;5065107;28;20028;-61
2022/08/14 07:27:02;;;;;;;14.32;13.43;;;;;;;;;;5058859;28;20025;-63
2022/08/14 07:29:28;;;;;;;17.42;16.20;;;;;;;;;;5061177;28;20046;-62
2022/08/14 07:31:53;;;;;;;16.67;15.68;;;;;;;;;;5063854;28;20049;-60
2022/08/14 07:34:18;;;;;;;17.67;16.67;;;;;;;;;;5065493;28;20398;-64
2022/08/14 07:36:44;;;;;;;17.77;16.73;;;;;;;;;;5059273;28;20498;-62
2022/08/14 07:39:09;;;;;;;15.82;14.93;;;;;;;;;;5060252;28;20637;-63
2022/08/14 07:41:34;;;;;;;18.02;17.02;;;;;;;;;;5061125;28;20547;-62
2022/08/14 07:44:01;;;;;;;17.80;16.80;;;;;;;;;;5056097;28;20029;-61
2022/08/14 07:46:26;;;;;;;16.92;15.90;;;;;;;;;;5060187;28;20033;-62
2022/08/14 07:48:52;;;;;;;18.17;17.17;;;;;;;;;;5058727;28;20544;-63
2022/08/14 07:51:18;;;;;;;15.38;14.48;;;;;;;;;;5060328;28;20032;-63
2022/08/14 07:53:44;;;;;;;21.45;20.25;;;;;;;;;;5059522;28;20029;-60
2022/08/14 07:56:10;;;;;;;21.92;20.67;;;;;;;;;;5062048;28;20034;-62
2022/08/14 07:58:37;;;;;;;24.50;23.20;;;;;;;;;;5060711;28;20052;-63
2022/08/14 08:01:04;;;;;;;20.90;19.50;;;;;;;;;;5060993;28;20032;-62
2022/08/14 08:03:33;;;;;;;24.45;21.92;;;;;;;;;;5061744;28;20468;-63
2022/08/14 08:05:59;;;;;;;20.38;19.27;;;;;;;;;;5063743;28;20039;-64
2022/08/14 08:08:24;;;;;;;18.83;17.73;;;;;;;;;;5064115;28;20024;-61
2022/08/14 08:10:54;;;;;;;21.85;20.58;;;;;;;;;;5061839;28;20039;-61
2022/08/14 08:13:20;;;;;;;20.33;19.17;;;;;;;;;;5058652;28;20028;-63
2022/08/14 08:15:58;;;;;;;23.73;22.35;;;;;;;;;;5061560;28;20194;-63
2022/08/14 08:18:25;;;;;;;20.23;19.08;;;;;;;;;;5063637;28;20028;-62
2022/08/14 08:20:53;;;;;;;20.38;19.17;;;;;;;;;;5063455;28;20031;-63
2022/08/14 08:23:21;;;;;;;24.42;23.05;;;;;;;;;;5061178;28;20129;-62
2022/08/14 08:25:48;;;;;;;21.45;20.25;;;;;;;;;;5062569;28;20470;-61
2022/08/14 08:28:17;;;;;;;20.02;18.75;;;;;;;;;;5060081;28;20036;-62
2022/08/14 08:30:47;;;;;;;20.77;19.58;;;;;;;;;;5064908;28;20410;-63
2022/08/14 08:33:15;;;;;;;29.25;27.73;;;;;;;;;;5063263;28;20029;-62
2022/08/14 08:35:42;;;;;;;50.92;48.30;;;;;;;;;;5061149;28;20046;-63
2022/08/14 08:38:16;;;;;;;36.45;34.55;;;;;;;;;;5064764;28;20601;-61
2022/08/14 08:40:47;;;;;;;30.77;29.17;;;;;;;;;;5061092;28;20051;-65
2022/08/14 08:43:18;;;;;;;45.75;43.40;;;;;;;;;;5063472;28;20040;-63
2022/08/14 08:45:53;;;;;;;42.00;39.85;;;;;;;;;;5056870;28;20480;-62
2022/08/14 08:48:18;;;;;;;78.72;74.82;;;;;;;;;;5059815;28;20032;-62
2022/08/14 08:50:43;;;;;;;58.28;55.28;;;;;;;;;;5064872;28;20051;-61
2022/08/14 08:53:09;;;;;;;78.80;74.88;;;;;;;;;;5063475;28;20033;-61
2022/08/14 08:55:37;;;;;;;71.80;68.25;;;;;;;;;;5066067;28;20037;-61
2022/08/14 08:58:09;;;;;;;90.68;86.18;;;;;;;;;;5064609;28;20050;-62
2022/08/14 09:00:36;;;;;;;93.07;88.47;;;;;;;;;;5053678;28;20036;-59
2022/08/14 09:03:06;;;;;;;88.82;84.05;;;;;;;;;;5061129;28;20032;-59
2022/08/14 09:05:34;;;;;;;76.10;72.30;;;;;;;;;;5064720;28;20029;-59
2022/08/14 09:08:10;;;;;;;96.47;91.68;;;;;;;;;;5061970;28;20040;-59
2022/08/14 09:10:36;;;;;;;87.25;82.90;;;;;;;;;;5062202;28;20037;-59
2022/08/14 09:13:02;;;;;;;71.70;68.10;;;;;;;;;;5062645;28;20474;-59
2022/08/14 09:15:28;;;;;;;88.05;83.65;;;;;;;;;;5058295;28;20351;-59
2022/08/14 09:17:53;;;;;;;101.60;96.57;;;;;;;;;;5056686;28;20036;-58
2022/08/14 09:20:19;;;;;;;99.00;94.07;;;;;;;;;;5058551;28;20025;-58
2022/08/14 09:22:45;;;;;;;86.80;82.50;;;;;;;;;;5060008;28;20106;-58
2022/08/14 09:25:11;;;;;;;87.25;82.80;;;;;;;;;;5060465;28;20036;-58
2022/08/14 09:27:37;;;;;;;99.13;94.22;;;;;;;;;;5060158;28;20033;-59
2022/08/14 09:30:06;;;;;;;102.47;97.38;;;;;;;;;;5056463;28;20066;-58
2022/08/14 09:32:40;;;;;;;113.20;107.60;;;;;;;;;;5060119;28;20128;-58
2022/08/14 09:35:22;;;;;;;123.20;116.90;;;;;;;;;;5062210;28;20028;-59
2022/08/14 09:37:58;;;;;;;117.85;111.85;;;;;;;;;;5062642;28;20036;-58
2022/08/14 09:40:53;;;;;;;118.03;112.20;;;;;;;;;;5066078;28;20402;-58
2022/08/14 09:43:43;;;;;;;113.07;107.47;;;;;;;;;;5064199;28;20048;-58
2022/08/14 09:46:09;;;;;;;94.75;89.95;;;;;;;;;;5062385;28;20033;-58
2022/08/14 09:48:36;;;;;;;118.25;112.43;;;;;;;;;;5064354;28;20024;-59
2022/08/14 09:51:02;;;;;;;136.18;129.45;;;;;;;;;;5061900;28;20032;-58
2022/08/14 09:53:37;;;;;;;153.27;145.68;;;;;;;;;;5059560;28;20039;-58
2022/08/14 09:56:04;;;;;;;139.20;132.32;;;;;;;;;;5064054;28;20362;-59
2022/08/14 09:58:44;;;;;;;166.10;157.93;;;;;;;;;;5063301;28;20036;-59
2022/08/14 10:01:14;;;;;;;155.10;147.48;;;;;;;;;;5066484;28;20032;-59
2022/08/14 10:03:47;;;;;;;178.43;169.73;;;;;;;;;;5058946;28;20028;-59
2022/08/14 10:06:16;;;;;;;168.05;159.70;;;;;;;;;;5066183;28;20025;-59
2022/08/14 10:09:03;;;;;;;169.32;161.00;;;;;;;;;;5070032;28;20087;-59
2022/08/14 10:11:35;;;;;;;175.55;166.95;;;;;;;;;;5063468;28;20044;-58
2022/08/14 10:14:17;;;;;;;163.73;155.60;;;;;;;;;;5061608;28;20055;-58
2022/08/14 10:16:45;;;;;;;183.30;174.30;;;;;;;;;;5062325;28;20028;-59
2022/08/14 10:19:14;;;;;;;167.63;159.32;;;;;;;;;;5062888;28;20474;-59
2022/08/14 10:21:42;;;;;;;194.32;184.82;;;;;;;;;;5058778;28;20106;-59
2022/08/14 10:24:21;;;;;;;176.20;167.50;;;;;;;;;;5060039;28;20697;-59
2022/08/14 10:26:53;;;;;;;202.15;192.23;;;;;;;;;;5063540;28;20421;-59
2022/08/14 10:29:30;;;;;;;99.38;94.43;;;;;;;;;;5057299;28;20614;-59
2022/08/14 10:31:58;;;;;;;80.25;76.15;;;;;;;;;;5063838;28;20059;-59
2022/08/14 10:34:30;;;;;;;69.30;65.80;;;;;;;;;;5065656;28;20052;-59
2022/08/14 10:37:03;;;;;;;137.93;131.13;;;;;;;;;;5061952;28;20580;-59
2022/08/14 10:39:28;;;;;;;122.90;116.78;;;;;;;;;;5063206;28;20112;-59
2022/08/14 10:42:04;;;;;;;194.88;185.35;;;;;;;;;;5065504;28;20658;-60
2022/08/14 10:44:44;;;;;;;76.68;72.88;;;;;;;;;;5068312;28;20488;-60
2022/08/14 10:47:10;;;;;;;;;;;;;;;;;;5056474;28;20489;-60
2022/08/14 10:49:58;;;;;;;151.23;143.80;;;;;;;;;;5069891;28;20401;-59
2022/08/14 10:52:33;;;;;;;134.38;127.72;;;;;;;;;;5051887;28;20143;-59
2022/08/14 10:55:34;;;;;;;134.43;127.72;;;;;;;;;;5054487;28;20037;-59
2022/08/14 10:57:59;;;;;;;87.47;83.10;;;;;;;;;;5045581;28;20355;-59
2022/08/14 11:00:27;;;;;;;71.72;68.13;;;;;;;;;;5051766;28;20060;-59
2022/08/14 11:03:01;;;;;;;73.95;70.22;;;;;;;;;;5051200;28;20533;-58
2022/08/14 11:05:44;;;;;;;77.25;73.35;;;;;;;;;;5051683;28;20021;-58
2022/08/14 11:08:13;;;;;;;80.03;76.03;;;;;;;;;;5051573;28;20071;-58
2022/08/14 11:10:54;;;;;;;75.65;71.88;;;;;;;;;;5052132;28;20040;-59
2022/08/14 11:13:23;;;;;;;69.63;66.13;;;;;;;;;;5052696;28;20017;-59
2022/08/14 11:15:49;;;;;;;73.82;70.13;;;;;;;;;;5054284;28;20037;-58
2022/08/14 11:18:16;;;;;;;78.90;74.88;;;;;;;;;;5051359;28;20033;-58
2022/08/14 11:20:47;;;;;;;87.78;83.43;;;;;;;;;;5050259;28;20382;-58
2022/08/14 11:23:14;;;;;;;93.45;88.78;;;;;;;;;;5052476;28;20032;-60
2022/08/14 11:25:44;;;;;;;88.53;84.07;;;;;;;;;;5048380;28;20025;-58
2022/08/14 11:28:13;;;;;;;92.38;87.70;;;;;;;;;;5051334;28;20116;-59
2022/08/14 11:30:41;;;;;;;98.88;94.03;;;;;;;;;;5048229;28;20041;-59
2022/08/14 11:33:06;;;;;;;104.30;99.15;;;;;;;;;;5048512;28;20052;-59
2022/08/14 11:35:32;;;;;;;105.53;100.25;;;;;;;;;;5049710;28;20264;-59
2022/08/14 11:38:00;;;;;;;99.63;94.65;;;;;;;;;;5048986;28;20028;-59
2022/08/14 11:40:29;;;;;;;86.78;82.47;;;;;;;;;;5051236;28;20029;-58
2022/08/14 11:42:55;;;;;;;116.72;110.95;;;;;;;;;;5053113;28;20083;-58
2022/08/14 11:45:26;;;;;;;92.40;87.80;;;;;;;;;;5050822;28;20021;-58
2022/08/14 11:47:54;;;;;;;98.53;93.60;;;;;;;;;;5049299;28;20049;-58
2022/08/14 11:50:31;;;;;;;84.32;80.13;;;;;;;;;;5051885;28;20447;-59
2022/08/14 11:52:58;;;;;;;128.60;122.25;;;;;;;;;;5048346;28;20079;-59
2022/08/14 11:55:27;;;;;;;95.20;90.45;;;;;;;;;;5049944;28;20614;-59
2022/08/14 11:58:11;;;;;;;104.95;99.75;;;;;;;;;;5049608;28;20529;-58
2022/08/14 12:00:47;;;;;;;134.82;128.15;;;;;;;;;;5035206;28;20530;-58
2022/08/14 12:03:13;;;;;;;168.10;159.75;;;;;;;;;;5038632;28;20060;-59
2022/08/14 12:05:41;;;;;;;117.28;111.47;;;;;;;;;;5037763;28;20102;-58
2022/08/14 12:08:07;;;;;;;148.00;140.60;;;;;;;;;;5042555;28;20017;-58
2022/08/14 12:10:35;;;;;;;161.85;153.82;;;;;;;;;;5040515;28;20478;-58
2022/08/14 12:13:17;;;;;;;165.82;157.63;;;;;;;;;;5037725;28;22084;-58
2022/08/14 12:15:45;;;;;;;188.38;178.93;;;;;;;;;;5040985;28;20049;-59
2022/08/14 12:18:11;;;;;;;203.93;193.90;;;;;;;;;;5039948;28;20021;-59
2022/08/14 12:20:41;;;;;;;223.18;212.13;;;;;;;;;;5036686;28;20029;-58
2022/08/14 12:23:20;;;;;;;117.45;111.60;;;;;;;;;;5036464;28;20123;-58
2022/08/14 12:25:46;;;;;;;185.73;176.53;;;;;;;;;;5038722;28;20087;-58
2022/08/14 12:28:12;;;;;;;163.73;155.27;;;;;;;;;;5040975;28;20017;-58
2022/08/14 12:30:41;;;;;;;221.48;210.57;;;;;;;;;;5039326;28;20118;-59
2022/08/14 12:33:29;;;;;;;162.63;154.52;;;;;;;;;;5034526;28;20037;-57
2022/08/14 12:35:57;;;;;;;255.20;242.68;;;;;;;;;;5040303;28;20064;-58
2022/08/14 12:38:42;;;;;;;251.85;239.43;;;;;;;;;;5037214;28;20036;-58
2022/08/14 12:41:15;;;;;;;249.50;237.18;;;;;;;;;;5042717;28;20041;-58
2022/08/14 12:43:50;;;;;;;222.50;211.52;;;;;;;;;;5039913;28;20122;-59
2022/08/14 12:46:28;;;;;;;229.07;217.85;;;;;;;;;;5039788;28;20043;-58
2022/08/14 12:48:54;;;;;;;193.32;183.82;;;;;;;;;;5039378;28;20072;-59
2022/08/14 12:51:24;;;;;;;257.33;244.68;;;;;;;;;;5041767;28;20067;-60
2022/08/14 12:53:51;;;;;;;216.95;206.18;;;;;;;;;;5038593;28;20029;-58
2022/08/14 12:56:17;;;;;;;216.38;205.70;;;;;;;;;;5040274;28;20450;-59
2022/08/14 12:58:50;;;;;;;261.92;249.02;;;;;;;;;;5041261;28;20140;-59
2022/08/14 13:01:24;;;;;;;182.48;173.32;;;;;;;;;;5038223;28;20029;-58
2022/08/14 13:03:51;;;;;;;271.85;258.45;;;;;;;;;;5045636;28;20037;-60
2022/08/14 13:06:18;;;;;;;223.10;212.23;;;;;;;;;;5040354;28;20083;-59
2022/08/14 13:08:44;;;;;;;281.17;267.33;;;;;;;;;;5038062;28;20039;-60
2022/08/14 13:11:13;;;;;;;294.17;279.65;;;;;;;;;;5038866;28;20029;-59
2022/08/14 13:13:43;;;;;;;311.90;296.17;;;;;;;;;;5039023;28;20052;-59
2022/08/14 13:16:12;;;;;;;291.30;276.90;;;;;;;;;;5038626;28;20194;-59
2022/08/14 13:18:40;;;;;;;291.83;277.35;;;;;;;;;;5038237;28;20112;-58
2022/08/14 13:21:06;;;;;;;316.35;300.58;;;;;;;;;;5035409;28;20040;-58
2022/08/14 13:23:33;;;;;;;272.45;259.02;;;;;;;;;;5037444;28;20418;-59
2022/08/14 13:25:59;;;;;;;309.88;294.42;;;;;;;;;;5037352;28;20068;-59
2022/08/14 13:28:26;;;;;;;314.55;298.92;;;;;;;;;;5036179;28;20057;-58
2022/08/14 13:30:53;;;;;;;339.92;322.90;;;;;;;;;;5053369;28;20032;-61
2022/08/14 13:33:20;;;;;;;335.02;318.17;;;;;;;;;;5037577;28;20125;-60
2022/08/14 13:35:48;;;;;;;295.90;281.20;;;;;;;;;;5039178;28;20041;-58
2022/08/14 13:38:24;;;;;;;327.95;311.48;;;;;;;;;;5038362;28;20479;-59
2022/08/14 13:40:54;;;;;;;326.52;309.90;;;;;;;;;;5037721;28;20053;-58
2022/08/14 13:43:21;;;;;;;345.58;328.08;;;;;;;;;;5035036;28;20025;-58
2022/08/14 13:45:46;;;;;;;258.48;245.68;;;;;;;;;;5038362;28;20094;-58
2022/08/14 13:48:14;;;;;;;278.30;264.42;;;;;;;;;;5036692;28;20036;-59
2022/08/14 13:50:40;;;;;;;307.75;292.42;;;;;;;;;;5034175;28;20125;-58
2022/08/14 13:53:08;;;;;;;333.08;316.40;;;;;;;;;;5035368;28;20100;-59
2022/08/14 13:55:34;;;;;;;334.30;317.55;;;;;;;;;;5039289;28;20113;-58
2022/08/14 13:58:01;;;;;;;327.80;311.40;;;;;;;;;;5035236;28;20034;-58
2022/08/14 14:00:27;;;;;;;355.75;337.73;;;;;;;;;;5037389;28;20466;-58
2022/08/14 14:02:55;;;;;;;334.27;317.48;;;;;;;;;;5034205;28;20121;-58
2022/08/14 14:05:21;;;;;;;316.05;300.25;;;;;;;;;;5034914;28;20033;-58
2022/08/14 14:07:52;;;;;;;342.73;325.48;;;;;;;;;;5037705;28;20072;-59
2022/08/14 14:10:20;;;;;;;327.88;311.42;;;;;;;;;;5037701;28;20029;-59
2022/08/14 14:12:47;;;;;;;361.38;342.83;;;;;;;;;;5037711;28;20033;-59
2022/08/14 14:15:15;;;;;;;339.05;322.00;;;;;;;;;;5034903;28;20032;-58
2022/08/14 14:17:42;;;;;;;327.05;310.52;;;;;;;;;;5034542;28;20037;-58
2022/08/14 14:20:10;;;;;;;332.85;316.15;;;;;;;;;;5035309;28;20061;-58
2022/08/14 14:22:42;;;;;;;265.30;252.00;;;;;;;;;;5035873;28;20618;-58
2022/08/14 14:25:13;;;;;;;333.33;316.65;;;;;;;;;;5034897;28;20302;-58
2022/08/14 14:27:41;;;;;;;317.23;301.15;;;;;;;;;;5036115;28;20147;-58
2022/08/14 14:30:08;;;;;;;293.42;278.88;;;;;;;;;;5036058;28;20025;-58
2022/08/14 14:32:40;;;;;;;331.45;314.80;;;;;;;;;;5036563;28;20037;-59
2022/08/14 14:35:10;;;;;;;326.35;309.95;;;;;;;;;;5034608;28;20496;-58